KAUO/AUO METAR and TAF weather

Enter ICAO airport designator
Station Type Date Time Source
KAUO METAR 2021/09/23 16:56 UTC NOAA

KAUO 231656Z AUTO 01014G17KT 10SM CLR 21/12 A3007 RMK AO2 SLP178 T02060117


Station Type Date Time Source
KAUO Decoded METAR 2021/09/23 16:56 UTC NOAA

Auburn-Opelika Airport, AL, United States (KAUO) 32-37N 085-26W
Sep 23, 2021 - 12:56 PM EDT / 2021.09.23 1656 UTC
Wind: from the N (010 degrees) at 16 MPH (14 KT) gusting to 20 MPH (17 KT):0
Visibility: 10 mile(s):0
Sky conditions: clear
Temperature: 69.1 F (20.6 C)
Dew Point: 53.1 F (11.7 C)
Relative Humidity: 56%
Pressure (altimeter): 30.07 in. Hg (1018 hPa)
ob: KAUO 231656Z AUTO 01014G17KT 10SM CLR 21/12 A3007 RMK AO2 SLP178 T02060117
cycle: 17

Station Type Date Time Source
KAUO TAF UTC NOAA

Error!

Example: see airport list